sensor_id;sensor_type;location;lat;lon;timestamp;P1;durP1;ratioP1;P2;durP2;ratioP2
16197;SDS011;8206;51.440;6.914;2023-04-15T00:00:02;2.83;;;2.63;;
16197;SDS011;8206;51.440;6.914;2023-04-15T00:02:29;1.43;;;1.40;;
16197;SDS011;8206;51.440;6.914;2023-04-15T00:04:56;4.27;;;1.93;;
16197;SDS011;8206;51.440;6.914;2023-04-15T00:07:22;2.87;;;2.77;;
16197;SDS011;8206;51.440;6.914;2023-04-15T00:09:50;4.77;;;2.30;;
16197;SDS011;8206;51.440;6.914;2023-04-15T00:12:19;12.00;;;2.27;;
16197;SDS011;8206;51.440;6.914;2023-04-15T00:14:46;2.17;;;2.07;;
16197;SDS011;8206;51.440;6.914;2023-04-15T00:17:12;2.47;;;2.30;;
16197;SDS011;8206;51.440;6.914;2023-04-15T00:19:39;2.53;;;2.43;;
16197;SDS011;8206;51.440;6.914;2023-04-15T00:22:06;1.77;;;1.67;;
16197;SDS011;8206;51.440;6.914;2023-04-15T00:24:33;1.30;;;1.30;;
16197;SDS011;8206;51.440;6.914;2023-04-15T00:27:01;1.60;;;1.60;;
16197;SDS011;8206;51.440;6.914;2023-04-15T00:29:28;2.87;;;2.50;;
16197;SDS011;8206;51.440;6.914;2023-04-15T00:31:55;5.70;;;1.80;;
16197;SDS011;8206;51.440;6.914;2023-04-15T00:34:22;1.87;;;1.77;;
16197;SDS011;8206;51.440;6.914;2023-04-15T00:36:49;27.47;;;3.03;;
16197;SDS011;8206;51.440;6.914;2023-04-15T00:39:16;3.03;;;2.83;;
16197;SDS011;8206;51.440;6.914;2023-04-15T00:41:43;1.83;;;1.73;;
16197;SDS011;8206;51.440;6.914;2023-04-15T00:44:11;2.83;;;2.30;;
16197;SDS011;8206;51.440;6.914;2023-04-15T00:46:38;0.90;;;0.90;;
16197;SDS011;8206;51.440;6.914;2023-04-15T00:49:06;3.67;;;2.20;;
16197;SDS011;8206;51.440;6.914;2023-04-15T00:51:33;2.67;;;2.10;;
16197;SDS011;8206;51.440;6.914;2023-04-15T00:54:01;3.13;;;2.93;;
16197;SDS011;8206;51.440;6.914;2023-04-15T00:56:28;6.70;;;2.80;;
16197;SDS011;8206;51.440;6.914;2023-04-15T00:58:55;2.20;;;2.03;;
16197;SDS011;8206;51.440;6.914;2023-04-15T01:01:24;4.07;;;2.60;;
16197;SDS011;8206;51.440;6.914;2023-04-15T01:03:51;2.37;;;2.17;;
16197;SDS011;8206;51.440;6.914;2023-04-15T01:06:18;3.30;;;3.00;;
16197;SDS011;8206;51.440;6.914;2023-04-15T01:08:45;2.03;;;1.93;;
16197;SDS011;8206;51.440;6.914;2023-04-15T01:11:12;1.53;;;1.53;;
16197;SDS011;8206;51.440;6.914;2023-04-15T01:13:39;2.97;;;2.77;;
16197;SDS011;8206;51.440;6.914;2023-04-15T01:16:06;5.37;;;2.27;;
16197;SDS011;8206;51.440;6.914;2023-04-15T01:18:35;2.00;;;1.90;;
16197;SDS011;8206;51.440;6.914;2023-04-15T01:21:02;1.00;;;1.00;;
16197;SDS011;8206;51.440;6.914;2023-04-15T01:23:30;3.00;;;2.80;;
16197;SDS011;8206;51.440;6.914;2023-04-15T01:25:59;4.67;;;1.77;;
16197;SDS011;8206;51.440;6.914;2023-04-15T01:28:26;3.17;;;2.97;;
16197;SDS011;8206;51.440;6.914;2023-04-15T01:31:03;6.23;;;2.90;;
16197;SDS011;8206;51.440;6.914;2023-04-15T01:33:32;4.67;;;2.80;;
16197;SDS011;8206;51.440;6.914;2023-04-15T01:35:59;2.40;;;2.20;;
16197;SDS011;8206;51.440;6.914;2023-04-15T01:38:26;4.17;;;2.87;;
16197;SDS011;8206;51.440;6.914;2023-04-15T01:40:52;1.07;;;1.07;;
16197;SDS011;8206;51.440;6.914;2023-04-15T01:43:20;3.27;;;2.93;;
16197;SDS011;8206;51.440;6.914;2023-04-15T01:45:47;1.77;;;1.70;;
16197;SDS011;8206;51.440;6.914;2023-04-15T01:48:14;3.33;;;3.13;;
16197;SDS011;8206;51.440;6.914;2023-04-15T01:50:40;2.10;;;2.00;;
16197;SDS011;8206;51.440;6.914;2023-04-15T01:53:07;3.80;;;3.50;;
16197;SDS011;8206;51.440;6.914;2023-04-15T01:55:35;2.37;;;2.27;;
16197;SDS011;8206;51.440;6.914;2023-04-15T01:58:01;1.27;;;1.27;;
16197;SDS011;8206;51.440;6.914;2023-04-15T02:00:29;3.63;;;3.33;;
16197;SDS011;8206;51.440;6.914;2023-04-15T02:02:56;2.67;;;2.50;;
16197;SDS011;8206;51.440;6.914;2023-04-15T02:05:23;2.53;;;2.33;;
16197;SDS011;8206;51.440;6.914;2023-04-15T02:07:50;1.60;;;1.60;;
16197;SDS011;8206;51.440;6.914;2023-04-15T02:10:17;2.30;;;2.20;;
16197;SDS011;8206;51.440;6.914;2023-04-15T02:12:44;2.07;;;1.97;;
16197;SDS011;8206;51.440;6.914;2023-04-15T02:15:11;3.80;;;1.93;;
16197;SDS011;8206;51.440;6.914;2023-04-15T02:17:39;1.77;;;1.77;;
16197;SDS011;8206;51.440;6.914;2023-04-15T02:20:10;7.47;;;3.77;;
16197;SDS011;8206;51.440;6.914;2023-04-15T02:22:37;1.47;;;1.40;;
16197;SDS011;8206;51.440;6.914;2023-04-15T02:25:04;2.40;;;2.30;;
16197;SDS011;8206;51.440;6.914;2023-04-15T02:27:31;2.87;;;2.77;;
16197;SDS011;8206;51.440;6.914;2023-04-15T02:29:58;13.37;;;2.37;;
16197;SDS011;8206;51.440;6.914;2023-04-15T02:32:25;3.17;;;2.97;;
16197;SDS011;8206;51.440;6.914;2023-04-15T02:34:54;2.80;;;2.47;;
16197;SDS011;8206;51.440;6.914;2023-04-15T02:37:20;2.43;;;2.33;;
16197;SDS011;8206;51.440;6.914;2023-04-15T02:39:48;5.40;;;3.97;;
16197;SDS011;8206;51.440;6.914;2023-04-15T02:42:15;2.70;;;2.60;;
16197;SDS011;8206;51.440;6.914;2023-04-15T02:44:42;1.97;;;1.87;;
16197;SDS011;8206;51.440;6.914;2023-04-15T02:47:08;1.93;;;1.93;;
16197;SDS011;8206;51.440;6.914;2023-04-15T02:49:35;2.03;;;1.93;;
16197;SDS011;8206;51.440;6.914;2023-04-15T02:52:05;4.57;;;1.60;;
16197;SDS011;8206;51.440;6.914;2023-04-15T02:54:32;3.00;;;2.80;;
16197;SDS011;8206;51.440;6.914;2023-04-15T02:56:58;3.43;;;3.23;;
16197;SDS011;8206;51.440;6.914;2023-04-15T02:59:25;2.50;;;2.00;;
16197;SDS011;8206;51.440;6.914;2023-04-15T03:01:52;2.37;;;2.27;;
16197;SDS011;8206;51.440;6.914;2023-04-15T03:04:20;3.63;;;3.40;;
16197;SDS011;8206;51.440;6.914;2023-04-15T03:06:47;2.47;;;2.37;;
16197;SDS011;8206;51.440;6.914;2023-04-15T03:09:15;4.30;;;3.27;;
16197;SDS011;8206;51.440;6.914;2023-04-15T03:11:41;8.87;;;4.27;;
16197;SDS011;8206;51.440;6.914;2023-04-15T03:14:08;3.00;;;2.20;;
16197;SDS011;8206;51.440;6.914;2023-04-15T03:16:35;2.83;;;2.57;;
16197;SDS011;8206;51.440;6.914;2023-04-15T03:19:01;1.23;;;1.23;;
16197;SDS011;8206;51.440;6.914;2023-04-15T03:21:28;2.70;;;2.43;;
16197;SDS011;8206;51.440;6.914;2023-04-15T03:23:55;2.97;;;2.83;;
16197;SDS011;8206;51.440;6.914;2023-04-15T03:26:26;4.23;;;3.13;;
16197;SDS011;8206;51.440;6.914;2023-04-15T03:28:53;2.67;;;2.43;;
16197;SDS011;8206;51.440;6.914;2023-04-15T03:31:20;1.60;;;1.60;;
16197;SDS011;8206;51.440;6.914;2023-04-15T03:33:47;3.70;;;3.30;;
16197;SDS011;8206;51.440;6.914;2023-04-15T03:36:14;2.57;;;2.47;;
16197;SDS011;8206;51.440;6.914;2023-04-15T03:38:41;2.10;;;2.03;;
16197;SDS011;8206;51.440;6.914;2023-04-15T03:41:07;2.37;;;2.20;;
16197;SDS011;8206;51.440;6.914;2023-04-15T03:43:35;3.13;;;2.57;;
16197;SDS011;8206;51.440;6.914;2023-04-15T03:46:02;1.63;;;1.63;;
16197;SDS011;8206;51.440;6.914;2023-04-15T03:48:29;16.00;;;2.07;;
16197;SDS011;8206;51.440;6.914;2023-04-15T03:50:56;2.87;;;2.53;;
16197;SDS011;8206;51.440;6.914;2023-04-15T03:53:23;4.77;;;2.70;;
16197;SDS011;8206;51.440;6.914;2023-04-15T03:55:49;1.77;;;1.67;;
16197;SDS011;8206;51.440;6.914;2023-04-15T03:58:16;4.13;;;2.63;;
16197;SDS011;8206;51.440;6.914;2023-04-15T04:00:44;2.07;;;1.97;;
16197;SDS011;8206;51.440;6.914;2023-04-15T04:03:11;7.43;;;3.13;;
16197;SDS011;8206;51.440;6.914;2023-04-15T04:05:37;3.00;;;1.87;;
16197;SDS011;8206;51.440;6.914;2023-04-15T04:08:05;2.67;;;2.53;;
16197;SDS011;8206;51.440;6.914;2023-04-15T04:10:32;1.30;;;1.30;;
16197;SDS011;8206;51.440;6.914;2023-04-15T04:12:59;2.07;;;1.70;;
16197;SDS011;8206;51.440;6.914;2023-04-15T04:15:25;2.90;;;2.70;;
16197;SDS011;8206;51.440;6.914;2023-04-15T04:17:53;2.80;;;2.23;;
16197;SDS011;8206;51.440;6.914;2023-04-15T04:20:21;2.10;;;2.00;;
16197;SDS011;8206;51.440;6.914;2023-04-15T04:22:47;4.33;;;1.90;;
16197;SDS011;8206;51.440;6.914;2023-04-15T04:25:14;2.40;;;2.30;;
16197;SDS011;8206;51.440;6.914;2023-04-15T04:27:41;2.00;;;1.93;;
16197;SDS011;8206;51.440;6.914;2023-04-15T04:30:09;2.90;;;2.10;;
16197;SDS011;8206;51.440;6.914;2023-04-15T04:32:36;2.20;;;2.10;;
16197;SDS011;8206;51.440;6.914;2023-04-15T04:35:06;2.50;;;2.40;;
16197;SDS011;8206;51.440;6.914;2023-04-15T04:37:33;3.00;;;2.80;;
16197;SDS011;8206;51.440;6.914;2023-04-15T04:39:59;11.67;;;3.03;;
16197;SDS011;8206;51.440;6.914;2023-04-15T04:42:26;4.87;;;2.83;;
16197;SDS011;8206;51.440;6.914;2023-04-15T04:44:53;4.80;;;3.23;;
16197;SDS011;8206;51.440;6.914;2023-04-15T04:47:19;2.20;;;2.10;;
16197;SDS011;8206;51.440;6.914;2023-04-15T04:49:46;3.53;;;3.23;;
16197;SDS011;8206;51.440;6.914;2023-04-15T04:52:14;2.47;;;2.37;;
16197;SDS011;8206;51.440;6.914;2023-04-15T04:54:41;4.20;;;2.73;;
16197;SDS011;8206;51.440;6.914;2023-04-15T04:57:07;3.00;;;2.80;;
16197;SDS011;8206;51.440;6.914;2023-04-15T04:59:34;1.13;;;1.03;;
16197;SDS011;8206;51.440;6.914;2023-04-15T05:02:01;1.90;;;1.63;;
16197;SDS011;8206;51.440;6.914;2023-04-15T05:04:27;3.07;;;2.83;;
16197;SDS011;8206;51.440;6.914;2023-04-15T05:06:55;2.63;;;2.53;;
16197;SDS011;8206;51.440;6.914;2023-04-15T05:09:24;1.77;;;1.67;;
16197;SDS011;8206;51.440;6.914;2023-04-15T05:11:51;3.63;;;3.33;;
16197;SDS011;8206;51.440;6.914;2023-04-15T05:14:17;2.43;;;2.23;;
16197;SDS011;8206;51.440;6.914;2023-04-15T05:16:44;4.40;;;3.20;;
16197;SDS011;8206;51.440;6.914;2023-04-15T05:19:11;2.00;;;1.93;;
16197;SDS011;8206;51.440;6.914;2023-04-15T05:21:37;3.63;;;2.83;;
16197;SDS011;8206;51.440;6.914;2023-04-15T05:24:04;4.67;;;3.13;;
16197;SDS011;8206;51.440;6.914;2023-04-15T05:26:32;2.23;;;2.13;;
16197;SDS011;8206;51.440;6.914;2023-04-15T05:28:59;1.97;;;1.87;;
16197;SDS011;8206;51.440;6.914;2023-04-15T05:31:26;3.23;;;3.03;;
16197;SDS011;8206;51.440;6.914;2023-04-15T05:33:53;3.97;;;3.63;;
16197;SDS011;8206;51.440;6.914;2023-04-15T05:36:19;2.87;;;2.67;;
16197;SDS011;8206;51.440;6.914;2023-04-15T05:38:46;5.23;;;1.77;;
16197;SDS011;8206;51.440;6.914;2023-04-15T05:41:13;2.43;;;2.33;;
16197;SDS011;8206;51.440;6.914;2023-04-15T05:43:41;3.20;;;2.70;;
16197;SDS011;8206;51.440;6.914;2023-04-15T05:46:08;6.83;;;1.87;;
16197;SDS011;8206;51.440;6.914;2023-04-15T05:48:35;4.10;;;2.33;;
16197;SDS011;8206;51.440;6.914;2023-04-15T05:51:01;2.63;;;2.53;;
16197;SDS011;8206;51.440;6.914;2023-04-15T05:53:28;3.23;;;2.70;;
16197;SDS011;8206;51.440;6.914;2023-04-15T05:55:55;3.97;;;3.60;;
16197;SDS011;8206;51.440;6.914;2023-04-15T05:58:22;2.27;;;2.07;;
16197;SDS011;8206;51.440;6.914;2023-04-15T06:00:50;4.37;;;3.93;;
16197;SDS011;8206;51.440;6.914;2023-04-15T06:03:17;14.67;;;3.07;;
16197;SDS011;8206;51.440;6.914;2023-04-15T06:05:44;2.87;;;2.77;;
16197;SDS011;8206;51.440;6.914;2023-04-15T06:08:10;3.33;;;2.90;;
16197;SDS011;8206;51.440;6.914;2023-04-15T06:10:37;1.80;;;1.70;;
16197;SDS011;8206;51.440;6.914;2023-04-15T06:13:04;3.20;;;2.50;;
16197;SDS011;8206;51.440;6.914;2023-04-15T06:15:31;7.03;;;4.03;;
16197;SDS011;8206;51.440;6.914;2023-04-15T06:17:59;5.90;;;3.57;;
16197;SDS011;8206;51.440;6.914;2023-04-15T06:20:26;2.90;;;2.80;;
16197;SDS011;8206;51.440;6.914;2023-04-15T06:22:52;7.17;;;3.87;;
16197;SDS011;8206;51.440;6.914;2023-04-15T06:25:19;3.47;;;3.27;;
16197;SDS011;8206;51.440;6.914;2023-04-15T06:27:46;3.47;;;3.10;;
16197;SDS011;8206;51.440;6.914;2023-04-15T06:30:13;3.53;;;3.30;;
16197;SDS011;8206;51.440;6.914;2023-04-15T06:32:40;2.63;;;2.43;;
16197;SDS011;8206;51.440;6.914;2023-04-15T06:35:08;2.00;;;1.97;;
16197;SDS011;8206;51.440;6.914;2023-04-15T06:37:35;4.47;;;4.13;;
16197;SDS011;8206;51.440;6.914;2023-04-15T06:40:02;2.87;;;2.67;;
16197;SDS011;8206;51.440;6.914;2023-04-15T06:42:29;3.73;;;3.40;;
16197;SDS011;8206;51.440;6.914;2023-04-15T06:44:56;4.63;;;4.33;;
16197;SDS011;8206;51.440;6.914;2023-04-15T06:47:23;3.93;;;3.60;;
16197;SDS011;8206;51.440;6.914;2023-04-15T06:49:50;5.90;;;3.20;;
16197;SDS011;8206;51.440;6.914;2023-04-15T06:52:18;4.60;;;2.83;;
16197;SDS011;8206;51.440;6.914;2023-04-15T06:54:45;2.10;;;1.93;;
16197;SDS011;8206;51.440;6.914;2023-04-15T06:57:12;2.53;;;2.33;;
16197;SDS011;8206;51.440;6.914;2023-04-15T06:59:38;6.03;;;3.80;;
16197;SDS011;8206;51.440;6.914;2023-04-15T07:02:07;1.80;;;1.57;;
16197;SDS011;8206;51.440;6.914;2023-04-15T07:04:37;3.60;;;3.30;;
16197;SDS011;8206;51.440;6.914;2023-04-15T07:07:04;3.80;;;2.77;;
16197;SDS011;8206;51.440;6.914;2023-04-15T07:09:33;4.07;;;3.17;;
16197;SDS011;8206;51.440;6.914;2023-04-15T07:12:00;3.33;;;3.13;;
16197;SDS011;8206;51.440;6.914;2023-04-15T07:14:26;2.93;;;2.80;;
16197;SDS011;8206;51.440;6.914;2023-04-15T07:16:53;11.43;;;2.80;;
16197;SDS011;8206;51.440;6.914;2023-04-15T07:19:20;4.87;;;3.93;;
16197;SDS011;8206;51.440;6.914;2023-04-15T07:21:47;2.17;;;2.03;;
16197;SDS011;8206;51.440;6.914;2023-04-15T07:24:14;2.90;;;2.57;;
16197;SDS011;8206;51.440;6.914;2023-04-15T07:26:44;3.03;;;2.83;;
16197;SDS011;8206;51.440;6.914;2023-04-15T07:29:11;3.63;;;3.43;;
16197;SDS011;8206;51.440;6.914;2023-04-15T07:31:38;5.93;;;3.77;;
16197;SDS011;8206;51.440;6.914;2023-04-15T07:34:05;6.03;;;3.17;;
16197;SDS011;8206;51.440;6.914;2023-04-15T07:36:32;4.13;;;3.13;;
16197;SDS011;8206;51.440;6.914;2023-04-15T07:38:59;4.67;;;3.67;;
16197;SDS011;8206;51.440;6.914;2023-04-15T07:41:27;4.77;;;3.37;;
16197;SDS011;8206;51.440;6.914;2023-04-15T07:43:55;4.97;;;2.40;;
16197;SDS011;8206;51.440;6.914;2023-04-15T07:46:22;2.37;;;2.27;;
16197;SDS011;8206;51.440;6.914;2023-04-15T07:48:51;3.57;;;3.27;;
16197;SDS011;8206;51.440;6.914;2023-04-15T07:51:17;2.77;;;2.67;;
16197;SDS011;8206;51.440;6.914;2023-04-15T07:53:45;2.73;;;2.53;;
16197;SDS011;8206;51.440;6.914;2023-04-15T07:56:11;2.83;;;2.63;;
16197;SDS011;8206;51.440;6.914;2023-04-15T07:58:38;1.87;;;1.77;;
16197;SDS011;8206;51.440;6.914;2023-04-15T08:01:06;5.30;;;3.17;;
16197;SDS011;8206;51.440;6.914;2023-04-15T08:03:33;2.90;;;2.63;;
16197;SDS011;8206;51.440;6.914;2023-04-15T08:06:00;2.73;;;2.30;;
16197;SDS011;8206;51.440;6.914;2023-04-15T08:08:26;1.30;;;1.30;;
16197;SDS011;8206;51.440;6.914;2023-04-15T08:10:53;2.00;;;1.90;;
16197;SDS011;8206;51.440;6.914;2023-04-15T08:13:20;1.57;;;1.57;;
16197;SDS011;8206;51.440;6.914;2023-04-15T08:18:46;0.93;;;0.93;;
16197;SDS011;8206;51.440;6.914;2023-04-15T08:21:14;1.20;;;1.20;;
16197;SDS011;8206;51.440;6.914;2023-04-15T08:23:41;1.47;;;1.37;;
16197;SDS011;8206;51.440;6.914;2023-04-15T08:26:08;0.93;;;0.93;;
16197;SDS011;8206;51.440;6.914;2023-04-15T08:28:36;1.50;;;1.40;;
16197;SDS011;8206;51.440;6.914;2023-04-15T08:31:03;1.20;;;1.13;;
16197;SDS011;8206;51.440;6.914;2023-04-15T08:33:31;1.53;;;1.43;;
16197;SDS011;8206;51.440;6.914;2023-04-15T08:35:58;13.07;;;2.07;;
16197;SDS011;8206;51.440;6.914;2023-04-15T08:38:25;1.73;;;1.63;;
16197;SDS011;8206;51.440;6.914;2023-04-15T08:40:52;1.30;;;1.30;;
16197;SDS011;8206;51.440;6.914;2023-04-15T08:43:19;2.57;;;1.97;;
16197;SDS011;8206;51.440;6.914;2023-04-15T08:45:50;4.43;;;1.60;;
16197;SDS011;8206;51.440;6.914;2023-04-15T08:48:18;1.10;;;1.10;;
16197;SDS011;8206;51.440;6.914;2023-04-15T08:50:46;1.07;;;1.07;;
16197;SDS011;8206;51.440;6.914;2023-04-15T08:53:13;1.63;;;1.53;;
16197;SDS011;8206;51.440;6.914;2023-04-15T08:55:42;1.70;;;1.43;;
16197;SDS011;8206;51.440;6.914;2023-04-15T08:58:10;1.20;;;1.20;;
16197;SDS011;8206;51.440;6.914;2023-04-15T09:00:37;1.10;;;1.10;;
16197;SDS011;8206;51.440;6.914;2023-04-15T09:03:04;1.43;;;1.33;;
16197;SDS011;8206;51.440;6.914;2023-04-15T09:05:31;1.30;;;1.30;;
16197;SDS011;8206;51.440;6.914;2023-04-15T09:08:00;1.67;;;1.57;;
16197;SDS011;8206;51.440;6.914;2023-04-15T09:10:27;1.03;;;1.03;;
16197;SDS011;8206;51.440;6.914;2023-04-15T09:12:54;0.90;;;0.90;;
16197;SDS011;8206;51.440;6.914;2023-04-15T09:15:22;1.97;;;1.67;;
16197;SDS011;8206;51.440;6.914;2023-04-15T09:17:51;1.50;;;1.23;;
16197;SDS011;8206;51.440;6.914;2023-04-15T09:20:18;1.13;;;1.13;;
16197;SDS011;8206;51.440;6.914;2023-04-15T09:22:45;1.80;;;1.70;;
16197;SDS011;8206;51.440;6.914;2023-04-15T09:25:27;0.50;;;0.50;;
16197;SDS011;8206;51.440;6.914;2023-04-15T09:27:55;2.00;;;1.83;;
16197;SDS011;8206;51.440;6.914;2023-04-15T09:30:23;1.40;;;1.37;;
16197;SDS011;8206;51.440;6.914;2023-04-15T09:32:50;2.13;;;1.98;;
16197;SDS011;8206;51.440;6.914;2023-04-15T09:35:18;1.75;;;1.52;;
16197;SDS011;8206;51.440;6.914;2023-04-15T09:37:46;1.33;;;1.08;;
16197;SDS011;8206;51.440;6.914;2023-04-15T09:40:13;1.00;;;1.00;;
16197;SDS011;8206;51.440;6.914;2023-04-15T09:42:54;2.23;;;2.13;;
16197;SDS011;8206;51.440;6.914;2023-04-15T09:45:21;1.43;;;1.30;;
16197;SDS011;8206;51.440;6.914;2023-04-15T09:47:49;1.57;;;1.47;;
16197;SDS011;8206;51.440;6.914;2023-04-15T09:50:17;1.17;;;1.17;;
16197;SDS011;8206;51.440;6.914;2023-04-15T09:52:44;1.60;;;1.50;;
16197;SDS011;8206;51.440;6.914;2023-04-15T09:55:11;1.23;;;1.23;;
16197;SDS011;8206;51.440;6.914;2023-04-15T09:57:39;5.40;;;0.80;;
16197;SDS011;8206;51.440;6.914;2023-04-15T10:00:08;1.10;;;1.10;;
16197;SDS011;8206;51.440;6.914;2023-04-15T10:02:35;1.90;;;1.80;;
16197;SDS011;8206;51.440;6.914;2023-04-15T10:05:02;1.63;;;1.37;;
16197;SDS011;8206;51.440;6.914;2023-04-15T10:07:30;1.00;;;0.93;;
16197;SDS011;8206;51.440;6.914;2023-04-15T10:09:57;1.80;;;1.70;;
16197;SDS011;8206;51.440;6.914;2023-04-15T10:12:26;0.90;;;0.90;;
16197;SDS011;8206;51.440;6.914;2023-04-15T10:14:55;1.10;;;1.10;;
16197;SDS011;8206;51.440;6.914;2023-04-15T10:17:25;1.00;;;1.00;;
16197;SDS011;8206;51.440;6.914;2023-04-15T10:19:53;0.97;;;0.90;;
16197;SDS011;8206;51.440;6.914;2023-04-15T10:22:21;1.33;;;1.10;;
16197;SDS011;8206;51.440;6.914;2023-04-15T10:24:48;0.87;;;0.87;;
16197;SDS011;8206;51.440;6.914;2023-04-15T10:27:16;2.80;;;2.23;;
16197;SDS011;8206;51.440;6.914;2023-04-15T10:29:43;3.03;;;2.00;;
16197;SDS011;8206;51.440;6.914;2023-04-15T10:32:10;1.27;;;1.23;;
16197;SDS011;8206;51.440;6.914;2023-04-15T10:34:39;1.57;;;1.47;;
16197;SDS011;8206;51.440;6.914;2023-04-15T10:37:08;0.70;;;0.70;;
16197;SDS011;8206;51.440;6.914;2023-04-15T10:39:42;1.07;;;1.07;;
16197;SDS011;8206;51.440;6.914;2023-04-15T10:42:09;1.23;;;1.23;;
16197;SDS011;8206;51.440;6.914;2023-04-15T10:44:37;0.77;;;0.77;;
16197;SDS011;8206;51.440;6.914;2023-04-15T10:47:05;0.87;;;0.70;;
16197;SDS011;8206;51.440;6.914;2023-04-15T10:49:36;1.03;;;1.03;;
16197;SDS011;8206;51.440;6.914;2023-04-15T10:52:10;0.90;;;0.90;;
16197;SDS011;8206;51.440;6.914;2023-04-15T10:54:37;1.10;;;1.10;;
16197;SDS011;8206;51.440;6.914;2023-04-15T10:57:07;1.63;;;1.53;;
16197;SDS011;8206;51.440;6.914;2023-04-15T11:02:43;1.73;;;1.63;;
16197;SDS011;8206;51.440;6.914;2023-04-15T11:05:13;2.00;;;1.90;;
16197;SDS011;8206;51.440;6.914;2023-04-15T11:07:48;0.97;;;0.97;;
16197;SDS011;8206;51.440;6.914;2023-04-15T11:13:26;1.07;;;1.07;;
16197;SDS011;8206;51.440;6.914;2023-04-15T11:16:03;1.17;;;1.17;;
16197;SDS011;8206;51.440;6.914;2023-04-15T11:18:32;2.50;;;2.17;;
16197;SDS011;8206;51.440;6.914;2023-04-15T11:21:02;1.23;;;1.23;;
16197;SDS011;8206;51.440;6.914;2023-04-15T11:23:34;1.53;;;1.43;;
16197;SDS011;8206;51.440;6.914;2023-04-15T11:26:03;1.07;;;1.07;;
16197;SDS011;8206;51.440;6.914;2023-04-15T11:28:33;1.43;;;1.33;;
16197;SDS011;8206;51.440;6.914;2023-04-15T11:33:10;3.23;;;1.60;;
16197;SDS011;8206;51.440;6.914;2023-04-15T11:35:39;4.93;;;1.23;;
16197;SDS011;8206;51.440;6.914;2023-04-15T11:38:07;1.10;;;1.00;;
16197;SDS011;8206;51.440;6.914;2023-04-15T11:40:35;1.20;;;0.80;;
16197;SDS011;8206;51.440;6.914;2023-04-15T11:43:03;1.17;;;1.17;;
16197;SDS011;8206;51.440;6.914;2023-04-15T11:45:31;1.73;;;1.63;;
16197;SDS011;8206;51.440;6.914;2023-04-15T11:48:04;1.23;;;0.83;;
16197;SDS011;8206;51.440;6.914;2023-04-15T11:50:33;1.33;;;1.23;;
16197;SDS011;8206;51.440;6.914;2023-04-15T11:53:01;1.70;;;1.60;;
16197;SDS011;8206;51.440;6.914;2023-04-15T11:55:29;1.43;;;1.23;;
16197;SDS011;8206;51.440;6.914;2023-04-15T11:58:06;1.20;;;1.10;;
16197;SDS011;8206;51.440;6.914;2023-04-15T12:00:34;5.70;;;1.70;;
16197;SDS011;8206;51.440;6.914;2023-04-15T12:03:10;1.43;;;1.43;;
16197;SDS011;8206;51.440;6.914;2023-04-15T12:08:50;1.07;;;0.97;;
16197;SDS011;8206;51.440;6.914;2023-04-15T12:11:33;1.93;;;1.37;;
16197;SDS011;8206;51.440;6.914;2023-04-15T12:14:11;1.43;;;1.33;;
16197;SDS011;8206;51.440;6.914;2023-04-15T12:16:41;1.37;;;1.37;;
16197;SDS011;8206;51.440;6.914;2023-04-15T12:19:10;2.57;;;1.50;;
16197;SDS011;8206;51.440;6.914;2023-04-15T12:21:40;1.60;;;1.10;;
16197;SDS011;8206;51.440;6.914;2023-04-15T12:24:09;1.53;;;1.43;;
16197;SDS011;8206;51.440;6.914;2023-04-15T12:26:37;0.83;;;0.83;;
16197;SDS011;8206;51.440;6.914;2023-04-15T12:29:09;0.90;;;0.90;;
16197;SDS011;8206;51.440;6.914;2023-04-15T12:31:43;0.40;;;0.40;;
16197;SDS011;8206;51.440;6.914;2023-04-15T12:34:12;0.57;;;0.57;;
16197;SDS011;8206;51.440;6.914;2023-04-15T12:36:41;0.73;;;0.63;;
16197;SDS011;8206;51.440;6.914;2023-04-15T12:39:07;0.60;;;0.60;;
16197;SDS011;8206;51.440;6.914;2023-04-15T12:41:34;0.87;;;0.87;;
16197;SDS011;8206;51.440;6.914;2023-04-15T12:44:01;1.10;;;1.10;;
16197;SDS011;8206;51.440;6.914;2023-04-15T12:46:27;1.07;;;1.03;;
16197;SDS011;8206;51.440;6.914;2023-04-15T12:48:55;0.93;;;0.93;;
16197;SDS011;8206;51.440;6.914;2023-04-15T12:51:22;0.80;;;0.80;;
16197;SDS011;8206;51.440;6.914;2023-04-15T12:53:50;1.70;;;1.60;;
16197;SDS011;8206;51.440;6.914;2023-04-15T12:56:17;0.73;;;0.73;;
16197;SDS011;8206;51.440;6.914;2023-04-15T12:58:44;0.80;;;0.80;;
16197;SDS011;8206;51.440;6.914;2023-04-15T13:01:10;0.87;;;0.87;;
16197;SDS011;8206;51.440;6.914;2023-04-15T13:03:37;2.37;;;1.83;;
16197;SDS011;8206;51.440;6.914;2023-04-15T13:06:04;0.90;;;0.90;;
16197;SDS011;8206;51.440;6.914;2023-04-15T13:08:30;1.60;;;1.50;;
16197;SDS011;8206;51.440;6.914;2023-04-15T13:10:59;2.70;;;1.47;;
16197;SDS011;8206;51.440;6.914;2023-04-15T13:13:25;3.67;;;1.37;;
16197;SDS011;8206;51.440;6.914;2023-04-15T13:15:52;1.03;;;1.03;;
16197;SDS011;8206;51.440;6.914;2023-04-15T13:18:19;1.00;;;1.00;;
16197;SDS011;8206;51.440;6.914;2023-04-15T13:20:47;3.57;;;1.97;;
16197;SDS011;8206;51.440;6.914;2023-04-15T13:23:14;1.47;;;1.37;;
16197;SDS011;8206;51.440;6.914;2023-04-15T13:25:40;1.27;;;1.17;;
16197;SDS011;8206;51.440;6.914;2023-04-15T13:28:09;0.40;;;0.40;;
16197;SDS011;8206;51.440;6.914;2023-04-15T13:30:36;1.10;;;1.10;;
16197;SDS011;8206;51.440;6.914;2023-04-15T13:33:03;1.83;;;1.77;;
16197;SDS011;8206;51.440;6.914;2023-04-15T13:35:30;0.60;;;0.60;;
16197;SDS011;8206;51.440;6.914;2023-04-15T13:37:57;0.77;;;0.77;;
16197;SDS011;8206;51.440;6.914;2023-04-15T13:40:24;1.17;;;1.17;;
16197;SDS011;8206;51.440;6.914;2023-04-15T13:42:51;0.77;;;0.77;;
16197;SDS011;8206;51.440;6.914;2023-04-15T13:45:19;0.87;;;0.87;;
16197;SDS011;8206;51.440;6.914;2023-04-15T13:47:46;1.53;;;1.43;;
16197;SDS011;8206;51.440;6.914;2023-04-15T13:50:12;0.90;;;0.90;;
16197;SDS011;8206;51.440;6.914;2023-04-15T13:52:39;1.10;;;1.07;;
16197;SDS011;8206;51.440;6.914;2023-04-15T13:55:06;0.87;;;0.87;;
16197;SDS011;8206;51.440;6.914;2023-04-15T13:57:33;1.00;;;1.00;;
16197;SDS011;8206;51.440;6.914;2023-04-15T14:00:00;1.10;;;1.10;;
16197;SDS011;8206;51.440;6.914;2023-04-15T14:02:29;1.40;;;1.30;;
16197;SDS011;8206;51.440;6.914;2023-04-15T14:04:56;1.70;;;1.60;;
16197;SDS011;8206;51.440;6.914;2023-04-15T14:07:22;2.80;;;2.00;;
16197;SDS011;8206;51.440;6.914;2023-04-15T14:09:49;0.70;;;0.70;;
16197;SDS011;8206;51.440;6.914;2023-04-15T14:12:16;0.93;;;0.93;;
16197;SDS011;8206;51.440;6.914;2023-04-15T14:14:43;0.50;;;0.50;;
16197;SDS011;8206;51.440;6.914;2023-04-15T14:17:10;1.20;;;1.20;;
16197;SDS011;8206;51.440;6.914;2023-04-15T14:19:38;4.43;;;0.90;;
16197;SDS011;8206;51.440;6.914;2023-04-15T14:22:05;0.83;;;0.83;;
16197;SDS011;8206;51.440;6.914;2023-04-15T14:24:32;0.90;;;0.90;;
16197;SDS011;8206;51.440;6.914;2023-04-15T14:26:58;0.50;;;0.50;;
16197;SDS011;8206;51.440;6.914;2023-04-15T14:29:26;0.60;;;0.60;;
16197;SDS011;8206;51.440;6.914;2023-04-15T14:31:52;1.10;;;1.00;;
16197;SDS011;8206;51.440;6.914;2023-04-15T14:34:21;0.90;;;0.90;;
16197;SDS011;8206;51.440;6.914;2023-04-15T14:36:50;0.77;;;0.77;;
16197;SDS011;8206;51.440;6.914;2023-04-15T14:39:17;0.40;;;0.30;;
16197;SDS011;8206;51.440;6.914;2023-04-15T14:41:44;0.80;;;0.80;;
16197;SDS011;8206;51.440;6.914;2023-04-15T14:44:11;1.30;;;0.70;;
16197;SDS011;8206;51.440;6.914;2023-04-15T14:46:38;1.27;;;1.17;;
16197;SDS011;8206;51.440;6.914;2023-04-15T14:49:05;0.83;;;0.70;;
16197;SDS011;8206;51.440;6.914;2023-04-15T14:51:32;0.60;;;0.60;;
16197;SDS011;8206;51.440;6.914;2023-04-15T14:54:00;1.10;;;1.10;;
16197;SDS011;8206;51.440;6.914;2023-04-15T14:56:27;1.07;;;1.07;;
16197;SDS011;8206;51.440;6.914;2023-04-15T14:58:54;0.43;;;0.43;;
16197;SDS011;8206;51.440;6.914;2023-04-15T15:01:20;1.40;;;1.30;;
16197;SDS011;8206;51.440;6.914;2023-04-15T15:03:47;0.90;;;0.90;;
16197;SDS011;8206;51.440;6.914;2023-04-15T15:06:14;0.87;;;0.87;;
16197;SDS011;8206;51.440;6.914;2023-04-15T15:08:41;0.77;;;0.77;;
16197;SDS011;8206;51.440;6.914;2023-04-15T15:11:08;0.80;;;0.80;;
16197;SDS011;8206;51.440;6.914;2023-04-15T15:13:35;1.40;;;0.97;;
16197;SDS011;8206;51.440;6.914;2023-04-15T15:16:02;0.60;;;0.60;;